Time;durP1;ratioP1;P1;durP2;ratioP2;P2;SDS_P1;SDS_P2;PMS_P1;PMS_P2;Temp;Humidity;BMP_temperature;BMP_pressure;BME280_temperature;BME280_humidity;BME280_pressure;Samples;Min_cycle;Max_cycle;Signal;HPM_P1;HPM_P2
2021/05/16 00:00:40;;;;;;;;;;;11.50;88.60;;;;;;4407143;32;20078;-76
2021/05/16 00:03:07;;;;;;;;;;;11.50;88.50;;;;;;4406805;32;20055;-77
2021/05/16 00:05:35;;;;;;;;;;;11.50;88.50;;;;;;4392767;32;20052;-76
2021/05/16 00:08:02;;;;;;;;;;;11.50;88.40;;;;;;4407126;32;20014;-76
2021/05/16 00:10:29;;;;;;;;;;;11.50;89.10;;;;;;4407065;32;20071;-77
2021/05/16 00:13:10;;;;;;;;;;;11.50;88.30;;;;;;4393700;32;20122;-77
2021/05/16 00:15:38;;;;;;;;;;;11.50;88.30;;;;;;4381178;32;20044;-76
2021/05/16 00:18:14;;;;;;;;;;;11.50;88.20;;;;;;4406656;32;20326;-77
2021/05/16 00:20:41;;;;;;;;;;;11.60;88.20;;;;;;4380790;32;20056;-76
2021/05/16 00:23:08;;;;;;;;;;;11.60;88.20;;;;;;4406857;32;20051;-76
2021/05/16 00:25:36;;;;;;;;;;;11.50;88.30;;;;;;4392918;32;20352;-77
2021/05/16 00:28:06;;;;;;;;;;;11.50;88.30;;;;;;4392861;32;20059;-76
2021/05/16 00:30:36;;;;;;;;;;;11.40;88.40;;;;;;4407000;32;20017;-76
2021/05/16 00:33:06;;;;;;;;;;;11.40;88.40;;;;;;4406531;32;20055;-76
2021/05/16 00:35:39;;;;;;;;;;;11.40;88.50;;;;;;4393063;32;20369;-76
2021/05/16 00:38:10;;;;;;;;;;;11.30;88.50;;;;;;4380813;32;20059;-76
2021/05/16 00:40:40;;;;;;;;;;;11.30;88.50;;;;;;4392536;32;20115;-76
2021/05/16 00:43:12;;;;;;;;;;;11.30;88.70;;;;;;4393179;32;20067;-76
2021/05/16 00:45:46;;;;;;;;;;;11.30;88.80;;;;;;4392999;32;20043;-76
2021/05/16 00:48:16;;;;;;;;;;;11.20;88.90;;;;;;4380456;32;20063;-76
2021/05/16 00:50:48;;;;;;;;;;;11.20;89.10;;;;;;4406603;32;20023;-76
2021/05/16 00:53:26;;;;;;;;;;;11.10;89.20;;;;;;4392662;32;19999;-76
2021/05/16 00:55:57;;;;;;;;;;;11.10;89.30;;;;;;4406588;32;20004;-76
2021/05/16 00:58:25;;;;;;;;;;;11.10;89.40;;;;;;4380431;32;20000;-76
2021/05/16 01:00:52;;;;;;;;;;;11.10;89.50;;;;;;4406459;32;20012;-76
2021/05/16 01:03:29;;;;;;;;;;;11.10;89.40;;;;;;4379870;32;20008;-76
2021/05/16 01:05:59;;;;;;;;;;;11.10;89.20;;;;;;4406421;32;20193;-76
2021/05/16 01:08:29;;;;;;;;;;;11.10;89.40;;;;;;4406699;32;20357;-76
2021/05/16 01:10:56;;;;;;;;;;;11.10;89.50;;;;;;4406306;32;20030;-76
2021/05/16 01:13:29;;;;;;;;;;;11.10;89.60;;;;;;4406541;32;20075;-76
2021/05/16 01:16:04;;;;;;;;;;;11.00;89.70;;;;;;4393088;32;20011;-76
2021/05/16 01:18:32;;;;;;;;;;;11.00;89.90;;;;;;4395741;32;20052;-76
2021/05/16 01:21:02;;;;;;;;;;;10.90;90.10;;;;;;4409219;32;20432;-76
2021/05/16 01:23:35;;;;;;;;;;;10.90;90.00;;;;;;4395228;32;19996;-76
2021/05/16 01:26:07;;;;;;;;;;;10.90;90.10;;;;;;4395714;32;20043;-76
2021/05/16 01:28:37;;;;;;;;;;;10.90;90.10;;;;;;4395566;32;20010;-76
2021/05/16 01:31:10;;;;;;;;;;;10.90;90.30;;;;;;4409260;32;20016;-76
2021/05/16 01:33:49;;;;;;;;;;;10.90;90.20;;;;;;4395741;32;20008;-76
2021/05/16 01:36:21;;;;;;;;;;;10.80;90.20;;;;;;4395799;32;20460;-76
2021/05/16 01:38:51;;;;;;;;;;;10.90;90.10;;;;;;4395288;32;20000;-76
2021/05/16 01:41:21;;;;;;;;;;;10.80;90.20;;;;;;4408847;32;20004;-76
2021/05/16 01:43:57;;;;;;;;;;;10.80;90.30;;;;;;4395267;32;20067;-76
2021/05/16 01:46:29;;;;;;;;;;;10.80;90.20;;;;;;4409237;32;20021;-76
2021/05/16 01:49:02;;;;;;;;;;;10.80;90.30;;;;;;4409227;32;20058;-76
2021/05/16 01:51:45;;;;;;;;;;;10.90;90.30;;;;;;4408920;32;20385;-76
2021/05/16 01:54:15;;;;;;;;;;;10.80;90.40;;;;;;4382429;32;20407;-76
2021/05/16 01:56:48;;;;;;;;;;;10.80;90.40;;;;;;4395537;32;20026;-76
2021/05/16 01:59:19;;;;;;;;;;;10.80;90.30;;;;;;4408957;32;20003;-76
2021/05/16 02:01:46;;;;;;;;;;;10.80;90.30;;;;;;4395018;32;20008;-76
2021/05/16 02:04:19;;;;;;;;;;;10.80;90.30;;;;;;4395082;32;20014;-76
2021/05/16 02:06:57;;;;;;;;;;;10.80;90.30;;;;;;4408903;32;20012;-76
2021/05/16 02:09:25;;;;;;;;;;;10.80;90.20;;;;;;4395330;32;20003;-76
2021/05/16 02:11:58;;;;;;;;;;;10.90;90.20;;;;;;4395605;32;20015;-77
2021/05/16 02:14:33;;;;;;;;;;;10.90;90.20;;;;;;4395236;32;20060;-76
2021/05/16 02:17:04;;;;;;;;;;;10.90;90.20;;;;;;4395124;32;20059;-76
2021/05/16 02:19:36;;;;;;;;;;;10.90;90.30;;;;;;4395203;32;20022;-76
2021/05/16 02:22:16;;;;;;;;;;;10.90;90.20;;;;;;4408649;32;20360;-76
2021/05/16 02:24:43;;;;;;;;;;;10.90;90.30;;;;;;4394835;32;20011;-76
2021/05/16 02:27:13;;;;;;;;;;;10.80;90.40;;;;;;4407770;32;20539;-76
2021/05/16 02:29:42;;;;;;;;;;;10.80;90.40;;;;;;4394366;32;20093;-76
2021/05/16 02:32:15;;;;;;;;;;;10.80;90.40;;;;;;4382480;32;20012;-76
2021/05/16 02:34:48;;;;;;;;;;;10.80;90.50;;;;;;4382192;32;20056;-76
2021/05/16 02:37:15;;;;;;;;;;;10.80;90.60;;;;;;4408325;32;20007;-76
2021/05/16 02:39:51;;;;;;;;;;;10.70;90.70;;;;;;4407929;32;20045;-76
2021/05/16 02:42:35;;;;;;;;;;;10.70;90.70;;;;;;4382778;32;20008;-76
2021/05/16 02:45:09;;;;;;;;;;;10.70;90.70;;;;;;4395184;32;20063;-76
2021/05/16 02:47:36;;;;;;;;;;;10.70;90.60;;;;;;4394880;32;20012;-76
2021/05/16 02:50:07;;;;;;;;;;;10.70;90.70;;;;;;4381901;32;20051;-76
2021/05/16 02:52:40;;;;;;;;;;;10.70;90.70;;;;;;4394672;32;19995;-76
2021/05/16 02:55:26;;;;;;;;;;;10.70;90.80;;;;;;4407786;32;20007;-76
2021/05/16 02:57:56;;;;;;;;;;;10.70;90.70;;;;;;4394353;32;20014;-75
2021/05/16 03:00:26;;;;;;;;;;;10.60;90.80;;;;;;4407970;32;20012;-75
2021/05/16 03:02:56;;;;;;;;;;;10.60;90.90;;;;;;4393935;32;20014;-76
2021/05/16 03:05:28;;;;;;;;;;;10.60;91.10;;;;;;4394191;32;20041;-76
2021/05/16 03:07:57;;;;;;;;;;;10.60;91.10;;;;;;4408064;32;20067;-76
2021/05/16 03:10:24;;;;;;;;;;;10.60;91.10;;;;;;4407755;32;20004;-76
2021/05/16 03:13:03;;;;;;;;;;;10.50;91.00;;;;;;4407896;32;20063;-76
2021/05/16 03:15:33;;;;;;;;;;;10.60;91.10;;;;;;4394104;32;20035;-76
2021/05/16 03:18:00;;;;;;;;;;;10.60;91.10;;;;;;4381588;32;19992;-76
2021/05/16 03:20:30;;;;;;;;;;;10.60;90.90;;;;;;4408007;32;20010;-76
2021/05/16 03:23:03;;;;;;;;;;;10.70;90.90;;;;;;4407678;32;20067;-76
2021/05/16 03:25:41;;;;;;;;;;;10.70;90.90;;;;;;4407725;32;20004;-76
2021/05/16 03:28:14;;;;;;;;;;;10.70;91.00;;;;;;4407633;32;20074;-76
2021/05/16 03:30:42;;;;;;;;;;;10.70;91.00;;;;;;4393900;32;20041;-76
2021/05/16 03:33:21;;;;;;;;;;;10.70;90.90;;;;;;4393885;32;20358;-76
2021/05/16 03:35:55;;;;;;;;;;;10.70;91.00;;;;;;4407676;32;20004;-76
2021/05/16 03:38:23;;;;;;;;;;;10.70;91.00;;;;;;4393351;32;20114;-76
2021/05/16 03:40:50;;;;;;;;;;;10.70;90.90;;;;;;4393877;32;20008;-76
2021/05/16 03:43:23;;;;;;;;;;;10.70;90.90;;;;;;4407523;32;20401;-76
2021/05/16 03:45:50;;;;;;;;;;;10.80;90.90;;;;;;4381058;32;20412;-76
2021/05/16 03:48:20;;;;;;;;;;;10.80;90.90;;;;;;4407468;32;20390;-76
2021/05/16 03:50:55;;;;;;;;;;;10.80;90.80;;;;;;4407597;32;20021;-76
2021/05/16 03:53:26;;;;;;;;;;;10.80;90.80;;;;;;4393542;32;20051;-76
2021/05/16 03:56:01;;;;;;;;;;;10.80;90.80;;;;;;4407239;32;20075;-76
2021/05/16 03:58:31;;;;;;;;;;;10.90;90.90;;;;;;4407308;32;20067;-76
2021/05/16 04:01:04;;;;;;;;;;;10.90;90.90;;;;;;4393371;32;20008;-76
2021/05/16 04:03:36;;;;;;;;;;;10.90;90.90;;;;;;4406963;32;20067;-76
2021/05/16 04:06:09;;;;;;;;;;;10.90;90.90;;;;;;4407242;32;20012;-75
2021/05/16 04:08:38;;;;;;;;;;;10.90;90.90;;;;;;4406968;32;20421;-76
2021/05/16 04:11:10;;;;;;;;;;;11.00;90.90;;;;;;4406989;32;20012;-75
2021/05/16 04:13:43;;;;;;;;;;;11.00;90.90;;;;;;4406942;32;20004;-75
2021/05/16 04:16:16;;;;;;;;;;;11.00;90.90;;;;;;4407088;32;20004;-75
2021/05/16 04:18:46;;;;;;;;;;;11.10;90.90;;;;;;4407077;32;20016;-75
2021/05/16 04:21:16;;;;;;;;;;;11.10;90.90;;;;;;4393493;32;20016;-75
2021/05/16 04:23:49;;;;;;;;;;;11.10;90.90;;;;;;4393254;32;20043;-75
2021/05/16 04:26:19;;;;;;;;;;;11.10;90.90;;;;;;4406877;32;20059;-74
2021/05/16 04:28:48;;;;;;;;;;;11.10;90.90;;;;;;4406716;32;20079;-74
2021/05/16 04:31:20;;;;;;;;;;;11.20;91.00;;;;;;4406982;32;20000;-74
2021/05/16 04:33:52;;;;;;;;;;;11.10;91.00;;;;;;4392983;32;20043;-74
2021/05/16 04:36:28;;;;;;;;;;;11.10;91.00;;;;;;4380636;32;19995;-74
2021/05/16 04:38:55;;;;;;;;;;;11.10;90.90;;;;;;4393152;32;20045;-74
2021/05/16 04:41:25;;;;;;;;;;;11.10;90.90;;;;;;4406743;32;20018;-74
2021/05/16 04:43:55;;;;;;;;;;;11.20;91.00;;;;;;4406577;32;20044;-74
2021/05/16 04:46:22;;;;;;;;;;;11.20;91.00;;;;;;4393140;32;20033;-75
2021/05/16 04:48:52;;;;;;;;;;;11.20;90.90;;;;;;4406743;32;20060;-75
2021/05/16 04:51:21;;;;;;;;;;;11.20;91.00;;;;;;4406450;32;20004;-75
2021/05/16 04:53:54;;;;;;;;;;;11.20;91.00;;;;;;4406243;32;20003;-75
2021/05/16 04:56:21;;;;;;;;;;;11.20;91.00;;;;;;4406363;32;20016;-75
2021/05/16 04:58:48;;;;;;;;;;;11.20;90.90;;;;;;4380118;32;20008;-74
2021/05/16 05:01:18;;;;;;;;;;;11.20;90.90;;;;;;4406613;32;20012;-75
2021/05/16 05:03:48;;;;;;;;;;;11.30;90.90;;;;;;4392545;32;20008;-75
2021/05/16 05:06:21;;;;;;;;;;;11.20;90.90;;;;;;4406166;32;20457;-75
2021/05/16 05:08:49;;;;;;;;;;;11.20;90.90;;;;;;4380428;32;20012;-75
2021/05/16 05:11:19;;;;;;;;;;;11.30;90.90;;;;;;4406457;32;20012;-75
2021/05/16 05:13:46;;;;;;;;;;;11.30;90.90;;;;;;4406370;32;20014;-74
2021/05/16 05:16:15;;;;;;;;;;;11.20;91.00;;;;;;4393061;32;20067;-75
2021/05/16 05:18:42;;;;;;;;;;;11.20;91.00;;;;;;4406357;32;20142;-74
2021/05/16 05:21:09;;;;;;;;;;;11.20;91.40;;;;;;4406082;32;20068;-75
2021/05/16 05:23:39;;;;;;;;;;;11.20;91.10;;;;;;4392335;32;20010;-75
2021/05/16 05:26:09;;;;;;;;;;;11.20;91.10;;;;;;4406481;32;20056;-75
2021/05/16 05:28:39;;;;;;;;;;;11.20;91.20;;;;;;4392336;32;20060;-75
2021/05/16 05:31:08;;;;;;;;;;;11.20;91.50;;;;;;4406299;32;20023;-75
2021/05/16 05:33:41;;;;;;;;;;;11.20;91.20;;;;;;4379992;32;19996;-75
2021/05/16 05:36:11;;;;;;;;;;;11.20;91.20;;;;;;4406072;32;20052;-75
2021/05/16 05:38:41;;;;;;;;;;;11.20;91.20;;;;;;4406297;32;20000;-74
2021/05/16 05:41:11;;;;;;;;;;;11.20;91.20;;;;;;4392388;32;20392;-75
2021/05/16 05:43:38;;;;;;;;;;;11.20;91.30;;;;;;4406205;32;20393;-74
2021/05/16 05:46:10;;;;;;;;;;;11.20;91.30;;;;;;4392959;32;20003;-74
2021/05/16 05:48:38;;;;;;;;;;;11.20;91.30;;;;;;4406086;32;20068;-74
2021/05/16 05:51:08;;;;;;;;;;;11.20;91.30;;;;;;4392419;32;20014;-74
2021/05/16 05:53:36;;;;;;;;;;;11.20;91.20;;;;;;4406150;32;20004;-75
2021/05/16 05:56:09;;;;;;;;;;;11.30;91.30;;;;;;4406121;32;20071;-75
2021/05/16 05:58:39;;;;;;;;;;;11.30;91.30;;;;;;4392336;32;20351;-75
2021/05/16 06:01:09;;;;;;;;;;;11.30;91.30;;;;;;4392046;32;20051;-75
2021/05/16 06:03:39;;;;;;;;;;;11.30;91.20;;;;;;4394436;32;20018;-74
2021/05/16 06:06:09;;;;;;;;;;;11.30;91.30;;;;;;4408758;32;20047;-74
2021/05/16 06:08:38;;;;;;;;;;;11.40;91.30;;;;;;4408780;32;20034;-75
2021/05/16 06:11:06;;;;;;;;;;;11.30;91.10;;;;;;4395261;32;20040;-75
2021/05/16 06:13:38;;;;;;;;;;;11.30;91.20;;;;;;4394848;32;20063;-74
2021/05/16 06:16:11;;;;;;;;;;;11.30;91.20;;;;;;4395071;32;20011;-75
2021/05/16 06:18:43;;;;;;;;;;;11.40;91.20;;;;;;4408584;32;20023;-75
2021/05/16 06:21:11;;;;;;;;;;;11.40;91.20;;;;;;4394790;32;20064;-74
2021/05/16 06:23:50;;;;;;;;;;;11.30;91.30;;;;;;4408297;32;19996;-75
2021/05/16 06:26:17;;;;;;;;;;;11.40;91.30;;;;;;4408690;32;20408;-75
2021/05/16 06:28:49;;;;;;;;;;;11.40;91.20;;;;;;4382316;32;20059;-74
2021/05/16 06:31:22;;;;;;;;;;;11.40;91.30;;;;;;4408651;32;20017;-75
2021/05/16 06:33:52;;;;;;;;;;;11.40;91.30;;;;;;4382350;32;20000;-75
2021/05/16 06:36:30;;;;;;;;;;;11.40;91.30;;;;;;4394520;32;20059;-74
2021/05/16 06:39:00;;;;;;;;;;;11.40;91.30;;;;;;4394741;32;20017;-75
2021/05/16 06:41:29;;;;;;;;;;;11.40;91.30;;;;;;4394774;32;20004;-74
2021/05/16 06:44:05;;;;;;;;;;;11.40;91.40;;;;;;4408331;32;20008;-75
2021/05/16 06:46:38;;;;;;;;;;;11.40;91.50;;;;;;4394637;32;20088;-75
2021/05/16 06:49:07;;;;;;;;;;;11.40;91.40;;;;;;4408351;32;20444;-75
2021/05/16 06:51:39;;;;;;;;;;;11.50;91.40;;;;;;4394540;32;20041;-74
2021/05/16 06:54:11;;;;;;;;;;;11.50;91.40;;;;;;4394628;32;20073;-74
2021/05/16 06:56:41;;;;;;;;;;;11.50;91.50;;;;;;4394905;32;20016;-75
2021/05/16 06:59:09;;;;;;;;;;;11.50;91.40;;;;;;4394092;32;20442;-74
2021/05/16 07:01:36;;;;;;;;;;;11.50;91.40;;;;;;4394114;32;20162;-75
2021/05/16 07:04:06;;;;;;;;;;;11.50;91.30;;;;;;4407644;32;20052;-75
2021/05/16 07:06:33;;;;;;;;;;;11.50;91.40;;;;;;4408071;32;20046;-75
2021/05/16 07:09:00;;;;;;;;;;;11.50;91.40;;;;;;4393760;32;20074;-75
2021/05/16 07:11:34;;;;;;;;;;;11.60;91.40;;;;;;4407894;32;20004;-75
2021/05/16 07:14:01;;;;;;;;;;;11.60;91.40;;;;;;4407847;32;20045;-75
2021/05/16 07:16:33;;;;;;;;;;;11.60;91.40;;;;;;4407979;32;20000;-75
2021/05/16 07:19:03;;;;;;;;;;;11.60;91.30;;;;;;4394178;32;20067;-75
2021/05/16 07:21:30;;;;;;;;;;;11.60;91.30;;;;;;4407862;32;20000;-75
2021/05/16 07:24:05;;;;;;;;;;;11.60;91.20;;;;;;4407785;32;20016;-75
2021/05/16 07:26:34;;;;;;;;;;;11.60;91.30;;;;;;4394187;32;20364;-74
2021/05/16 07:29:06;;;;;;;;;;;11.60;91.20;;;;;;4407479;32;20059;-75
2021/05/16 07:31:36;;;;;;;;;;;11.60;91.20;;;;;;4407494;32;20060;-74
2021/05/16 07:34:06;;;;;;;;;;;11.60;91.30;;;;;;4393744;32;20529;-75
2021/05/16 07:36:33;;;;;;;;;;;11.60;91.30;;;;;;4393521;32;20067;-74
2021/05/16 07:39:10;;;;;;;;;;;11.60;91.30;;;;;;4407368;32;20004;-75
2021/05/16 07:41:41;;;;;;;;;;;11.60;91.40;;;;;;4407594;32;20043;-75
2021/05/16 07:44:10;;;;;;;;;;;11.60;91.10;;;;;;4407440;32;20063;-75
2021/05/16 07:46:38;;;;;;;;;;;11.60;91.10;;;;;;4407090;32;20014;-75
2021/05/16 07:49:11;;;;;;;;;;;11.60;91.10;;;;;;4394309;32;20016;-75
2021/05/16 07:51:41;;;;;;;;;;;11.60;91.10;;;;;;4407566;32;19999;-75
2021/05/16 07:54:11;;;;;;;;;;;11.70;91.00;;;;;;4407152;32;20014;-75
2021/05/16 07:56:38;;;;;;;;;;;11.70;91.00;;;;;;4393152;32;20344;-75
2021/05/16 07:59:11;;;;;;;;;;;11.70;90.90;;;;;;4407260;32;20018;-75
2021/05/16 08:01:41;;;;;;;;;;;11.70;90.90;;;;;;4381048;32;20407;-75
2021/05/16 08:04:08;;;;;;;;;;;11.70;90.90;;;;;;4391716;32;20014;-75
2021/05/16 08:06:40;;;;;;;;;;;11.70;91.00;;;;;;4391806;32;20059;-75
2021/05/16 08:09:12;;;;;;;;;;;11.70;90.70;;;;;;4391798;32;20379;-75
2021/05/16 08:11:39;;;;;;;;;;;11.70;90.70;;;;;;4392086;32;20405;-75
2021/05/16 08:14:07;;;;;;;;;;;11.70;90.70;;;;;;4378393;32;20069;-75
2021/05/16 08:16:36;;;;;;;;;;;11.80;90.60;;;;;;4391687;32;20412;-76
2021/05/16 08:19:03;;;;;;;;;;;11.80;90.80;;;;;;4391580;32;20387;-75
2021/05/16 08:21:33;;;;;;;;;;;11.80;90.30;;;;;;4391644;32;20037;-75
2021/05/16 08:24:03;;;;;;;;;;;11.80;90.30;;;;;;4391629;32;20404;-75
2021/05/16 08:26:33;;;;;;;;;;;11.80;90.20;;;;;;4365451;32;20015;-75
2021/05/16 08:29:01;;;;;;;;;;;11.80;90.20;;;;;;4391335;32;20038;-75
2021/05/16 08:31:35;;;;;;;;;;;11.80;90.20;;;;;;4377603;32;20013;-75
2021/05/16 08:34:06;;;;;;;;;;;11.80;90.20;;;;;;4391506;32;20012;-75
2021/05/16 08:36:40;;;;;;;;;;;11.90;90.40;;;;;;4391740;32;20005;-76
2021/05/16 08:39:08;;;;;;;;;;;12.00;90.50;;;;;;4391596;32;20014;-76
2021/05/16 08:41:36;;;;;;;;;;;12.00;90.50;;;;;;4377842;32;20047;-76
2021/05/16 08:44:03;;;;;;;;;;;12.00;90.50;;;;;;4377735;32;20012;-77
2021/05/16 08:46:31;;;;;;;;;;;12.00;90.40;;;;;;4378088;32;20056;-77
2021/05/16 08:48:58;;;;;;;;;;;12.10;90.30;;;;;;4377709;32;20005;-76
2021/05/16 08:51:32;;;;;;;;;;;12.20;90.10;;;;;;4378610;32;20005;-77
2021/05/16 08:54:06;;;;;;;;;;;12.20;90.10;;;;;;4391103;32;20036;-77
2021/05/16 08:56:36;;;;;;;;;;;12.20;90.10;;;;;;4377630;32;19996;-77
2021/05/16 08:59:04;;;;;;;;;;;12.20;90.10;;;;;;4391465;32;20042;-77
2021/05/16 09:01:44;;;;;;;;;;;12.30;90.10;;;;;;4377804;32;20115;-76
2021/05/16 09:04:22;;;;;;;;;;;12.30;90.00;;;;;;4391451;32;20018;-76
2021/05/16 09:06:53;;;;;;;;;;;12.40;89.60;;;;;;4391450;32;20009;-76
2021/05/16 09:09:28;;;;;;;;;;;12.30;89.50;;;;;;4391477;32;20018;-76
2021/05/16 09:12:08;;;;;;;;;;;12.30;89.10;;;;;;4391173;32;20011;-77
2021/05/16 09:14:52;;;;;;;;;;;12.30;89.10;;;;;;4391252;32;20453;-76
2021/05/16 09:17:22;;;;;;;;;;;12.30;88.70;;;;;;4377737;32;20060;-77
2021/05/16 09:19:55;;;;;;;;;;;12.30;88.90;;;;;;4377744;32;20046;-76
2021/05/16 09:22:37;;;;;;;;;;;12.30;88.80;;;;;;4391381;32;20007;-76
2021/05/16 09:25:04;;;;;;;;;;;12.30;88.40;;;;;;4391162;32;20436;-77
2021/05/16 09:27:36;;;;;;;;;;;12.40;88.60;;;;;;4378015;32;20018;-77
2021/05/16 09:30:16;;;;;;;;;;;12.40;88.50;;;;;;4390806;32;20000;-77
2021/05/16 09:32:46;;;;;;;;;;;12.40;88.40;;;;;;4378023;32;20012;-77
2021/05/16 09:35:18;;;;;;;;;;;12.40;88.50;;;;;;4377822;32;20390;-77
2021/05/16 09:38:12;;;;;;;;;;;12.40;88.40;;;;;;4392501;32;20071;-77
2021/05/16 09:40:42;;;;;;;;;;;12.50;88.50;;;;;;4391967;32;20431;-77
2021/05/16 09:43:09;;;;;;;;;;;12.50;88.40;;;;;;4367967;32;20013;-76
2021/05/16 09:46:02;;;;;;;;;;;12.50;88.10;;;;;;4394009;32;20071;-76
2021/05/16 09:48:38;;;;;;;;;;;12.50;87.70;;;;;;4379858;32;20012;-77
2021/05/16 09:51:08;;;;;;;;;;;12.50;87.70;;;;;;4393987;32;20067;-77
2021/05/16 09:53:48;;;;;;;;;;;12.50;87.70;;;;;;4393705;32;20079;-76
2021/05/16 09:56:24;;;;;;;;;;;12.50;87.90;;;;;;4380336;32;20123;-77
2021/05/16 09:58:57;;;;;;;;;;;12.50;87.40;;;;;;4393534;32;20016;-76
2021/05/16 10:01:26;;;;;;;;;;;12.60;87.10;;;;;;4393927;32;20083;-76
2021/05/16 10:03:56;;;;;;;;;;;12.60;87.30;;;;;;4407484;32;20051;-76
2021/05/16 10:06:27;;;;;;;;;;;12.60;87.60;;;;;;4395507;32;20397;-76
2021/05/16 10:08:58;;;;;;;;;;;12.60;87.60;;;;;;4382801;32;20055;-75
2021/05/16 10:11:27;;;;;;;;;;;12.70;87.50;;;;;;4395087;32;20087;-75
2021/05/16 10:14:02;;;;;;;;;;;12.70;87.50;;;;;;4408477;32;20105;-75
2021/05/16 10:16:37;;;;;;;;;;;12.70;88.00;;;;;;4394577;32;20368;-75
2021/05/16 10:19:07;;;;;;;;;;;12.70;88.10;;;;;;4408822;32;20008;-76
2021/05/16 10:21:34;;;;;;;;;;;12.70;88.00;;;;;;4382374;32;20138;-76
2021/05/16 10:24:11;;;;;;;;;;;12.70;88.10;;;;;;4408507;32;20019;-75
2021/05/16 10:26:43;;;;;;;;;;;12.80;88.20;;;;;;4408853;32;20012;-76
2021/05/16 10:29:18;;;;;;;;;;;12.80;88.10;;;;;;4408674;32;20352;-76
2021/05/16 10:31:55;;;;;;;;;;;12.90;88.00;;;;;;4394691;32;20019;-76
2021/05/16 10:34:32;;;;;;;;;;;12.90;87.90;;;;;;4395593;32;20011;-76
2021/05/16 10:37:03;;;;;;;;;;;12.90;87.60;;;;;;4394394;32;20055;-76
2021/05/16 10:39:43;;;;;;;;;;;12.90;87.30;;;;;;4394436;32;20061;-75
2021/05/16 10:42:10;;;;;;;;;;;12.90;87.40;;;;;;4394412;32;20344;-76
2021/05/16 10:44:59;;;;;;;;;;;12.90;87.60;;;;;;4395102;32;20479;-76
2021/05/16 10:50:14;;;;;;;;;;;12.90;87.00;;;;;;4408367;32;20421;-76
2021/05/16 10:52:54;;;;;;;;;;;13.00;86.90;;;;;;4394052;32;20000;-76
2021/05/16 10:55:26;;;;;;;;;;;13.00;86.70;;;;;;4408704;32;20084;-76
2021/05/16 10:57:57;;;;;;;;;;;13.00;86.60;;;;;;4394377;32;20029;-76
2021/05/16 11:00:29;;;;;;;;;;;13.00;86.60;;;;;;4381896;32;20021;-76
2021/05/16 11:03:02;;;;;;;;;;;13.00;86.50;;;;;;4407542;32;20008;-77
2021/05/16 11:08:18;;;;;;;;;;;13.00;86.30;;;;;;4394092;32;20115;-76
2021/05/16 11:10:50;;;;;;;;;;;13.00;86.10;;;;;;4393972;32;20059;-76
2021/05/16 11:13:31;;;;;;;;;;;13.00;86.30;;;;;;4381514;32;20006;-76
2021/05/16 11:16:10;;;;;;;;;;;12.90;86.50;;;;;;4394314;32;20012;-75
2021/05/16 11:18:40;;;;;;;;;;;12.90;86.90;;;;;;4407735;32;19999;-76
2021/05/16 11:21:10;;;;;;;;;;;12.90;87.50;;;;;;4381915;32;20000;-75
2021/05/16 11:23:47;;;;;;;;;;;12.80;87.90;;;;;;4407686;32;20003;-75
2021/05/16 11:26:18;;;;;;;;;;;12.80;88.00;;;;;;4394096;32;20038;-75
2021/05/16 11:28:55;;;;;;;;;;;12.80;88.10;;;;;;4393933;32;20027;-75
2021/05/16 11:31:26;;;;;;;;;;;12.70;88.50;;;;;;4407927;32;20064;-75
2021/05/16 11:34:01;;;;;;;;;;;12.70;88.60;;;;;;4394040;32;20056;-75
2021/05/16 11:36:35;;;;;;;;;;;12.70;89.20;;;;;;4381522;32;20010;-75
2021/05/16 11:39:04;;;;;;;;;;;12.70;89.20;;;;;;4393855;32;20000;-75
2021/05/16 11:41:39;;;;;;;;;;;12.60;89.40;;;;;;4393331;32;20048;-74
2021/05/16 11:44:13;;;;;;;;;;;12.70;90.00;;;;;;4393982;32;20119;-75
2021/05/16 11:46:41;;;;;;;;;;;12.60;90.00;;;;;;4381083;32;20004;-74
2021/05/16 11:49:15;;;;;;;;;;;12.60;90.10;;;;;;4407422;32;20018;-75
2021/05/16 11:51:48;;;;;;;;;;;12.70;90.10;;;;;;4381055;32;20010;-75
2021/05/16 11:54:18;;;;;;;;;;;12.70;90.30;;;;;;4393821;32;20107;-75
2021/05/16 11:56:49;;;;;;;;;;;12.70;90.40;;;;;;4407087;32;20004;-75
2021/05/16 11:59:17;;;;;;;;;;;12.70;90.40;;;;;;4407180;32;20067;-75
2021/05/16 12:01:46;;;;;;;;;;;12.80;90.60;;;;;;4406666;32;20004;-75
2021/05/16 12:04:21;;;;;;;;;;;12.80;90.30;;;;;;4407077;32;20014;-75
2021/05/16 12:06:53;;;;;;;;;;;12.90;90.20;;;;;;4381164;32;20025;-76
2021/05/16 12:09:25;;;;;;;;;;;13.00;90.00;;;;;;4393697;32;20405;-75
2021/05/16 12:12:01;;;;;;;;;;;13.10;90.00;;;;;;4381097;32;20533;-75
2021/05/16 12:14:32;;;;;;;;;;;13.20;89.90;;;;;;4406986;32;20298;-76
2021/05/16 12:17:00;;;;;;;;;;;13.20;89.50;;;;;;4393459;32;20024;-76
2021/05/16 12:19:37;;;;;;;;;;;13.20;89.30;;;;;;4393221;32;20056;-76
2021/05/16 12:22:08;;;;;;;;;;;13.20;89.40;;;;;;4407096;32;20014;-75
2021/05/16 12:24:42;;;;;;;;;;;13.30;89.50;;;;;;4380701;32;20051;-75
2021/05/16 12:27:13;;;;;;;;;;;13.30;89.00;;;;;;4406638;32;20014;-76
2021/05/16 12:29:41;;;;;;;;;;;13.30;88.70;;;;;;4380739;32;20015;-76
2021/05/16 12:32:13;;;;;;;;;;;13.40;88.90;;;;;;4380366;32;20039;-76
2021/05/16 12:34:41;;;;;;;;;;;13.40;88.90;;;;;;4393324;32;20045;-76
2021/05/16 12:37:17;;;;;;;;;;;13.50;89.60;;;;;;4406673;32;20310;-76
2021/05/16 12:39:45;;;;;;;;;;;13.50;89.50;;;;;;4393379;32;20069;-76
2021/05/16 12:42:22;;;;;;;;;;;13.60;89.20;;;;;;4392921;32;20023;-76
2021/05/16 12:44:50;;;;;;;;;;;13.60;90.00;;;;;;4392818;32;20038;-76
2021/05/16 12:47:24;;;;;;;;;;;13.70;89.50;;;;;;4380537;32;20047;-75
2021/05/16 12:50:05;;;;;;;;;;;13.80;89.80;;;;;;4406140;32;20378;-75
2021/05/16 12:52:35;;;;;;;;;;;13.90;89.00;;;;;;4393619;32;20389;-75
2021/05/16 12:55:05;;;;;;;;;;;13.90;88.60;;;;;;4406378;32;20417;-75
2021/05/16 13:00:06;;;;;;;;;;;14.00;88.20;;;;;;4406652;32;20007;-75
2021/05/16 13:02:38;;;;;;;;;;;14.00;88.10;;;;;;4406203;32;20401;-75
2021/05/16 13:05:17;;;;;;;;;;;14.00;88.30;;;;;;4393063;32;20018;-74
2021/05/16 13:07:51;;;;;;;;;;;14.10;87.00;;;;;;4406671;32;20012;-75
2021/05/16 13:10:26;;;;;;;;;;;14.10;87.20;;;;;;4380354;32;20000;-75
2021/05/16 13:13:22;;;;;;;;;;;14.10;86.60;;;;;;4409362;32;20022;-74
2021/05/16 13:15:52;;;;;;;;;;;14.20;85.50;;;;;;4409538;32;20022;-75
2021/05/16 13:18:25;;;;;;;;;;;14.30;85.20;;;;;;4409338;32;20008;-74
2021/05/16 13:20:56;;;;;;;;;;;14.30;85.00;;;;;;4409516;32;20007;-74
2021/05/16 13:23:28;;;;;;;;;;;14.30;84.30;;;;;;4409579;32;20000;-75
2021/05/16 13:25:58;;;;;;;;;;;14.30;85.20;;;;;;4396449;32;20056;-74
2021/05/16 13:28:30;;;;;;;;;;;14.40;85.30;;;;;;4395567;32;20028;-75
2021/05/16 13:31:00;;;;;;;;;;;14.40;84.60;;;;;;4409119;32;20059;-75
2021/05/16 13:33:34;;;;;;;;;;;14.40;85.10;;;;;;4395553;32;20051;-74
2021/05/16 13:36:05;;;;;;;;;;;14.40;85.40;;;;;;4409350;32;20417;-74
2021/05/16 13:38:36;;;;;;;;;;;14.50;84.90;;;;;;4383158;32;20459;-75
2021/05/16 13:41:07;;;;;;;;;;;14.50;85.20;;;;;;4383075;32;19996;-75
2021/05/16 13:43:38;;;;;;;;;;;14.50;84.70;;;;;;4409590;32;20011;-75
2021/05/16 13:46:05;;;;;;;;;;;14.50;84.80;;;;;;4409254;32;20003;-75
2021/05/16 13:48:32;;;;;;;;;;;14.50;84.70;;;;;;4382931;32;20000;-75
2021/05/16 13:51:05;;;;;;;;;;;14.50;84.60;;;;;;4408896;32;20042;-74
2021/05/16 13:53:35;;;;;;;;;;;14.50;84.40;;;;;;4408955;32;20004;-75
2021/05/16 13:56:02;;;;;;;;;;;14.50;84.70;;;;;;4408867;32;20402;-75
2021/05/16 13:58:29;;;;;;;;;;;14.50;84.70;;;;;;4395729;32;20016;-75
2021/05/16 14:00:57;;;;;;;;;;;14.60;84.70;;;;;;4395026;32;20436;-75
2021/05/16 14:03:24;;;;;;;;;;;14.60;84.70;;;;;;4408398;32;20476;-75
2021/05/16 14:05:54;;;;;;;;;;;14.60;83.50;;;;;;4408582;32;20008;-75
2021/05/16 14:08:22;;;;;;;;;;;14.70;84.20;;;;;;4395281;32;20059;-75
2021/05/16 14:10:52;;;;;;;;;;;14.70;84.40;;;;;;4408759;32;20074;-75
2021/05/16 14:13:19;;;;;;;;;;;14.70;83.30;;;;;;4408595;32;20015;-75
2021/05/16 14:15:49;;;;;;;;;;;14.70;83.30;;;;;;4395455;32;20030;-75
2021/05/16 14:18:17;;;;;;;;;;;14.70;83.40;;;;;;4395032;32;20045;-75
2021/05/16 14:20:49;;;;;;;;;;;14.70;83.30;;;;;;4408906;32;20464;-75
2021/05/16 14:23:22;;;;;;;;;;;14.70;82.70;;;;;;4394409;32;20440;-75
2021/05/16 14:25:49;;;;;;;;;;;14.70;82.50;;;;;;4394698;32;19996;-75
2021/05/16 14:28:19;;;;;;;;;;;14.70;82.80;;;;;;4408573;32;20318;-76
2021/05/16 14:30:47;;;;;;;;;;;14.70;83.10;;;;;;4394911;32;20004;-75
2021/05/16 14:33:19;;;;;;;;;;;14.70;82.90;;;;;;4408588;32;20018;-75
2021/05/16 14:35:50;;;;;;;;;;;14.70;83.10;;;;;;4408706;32;20078;-75
2021/05/16 14:38:26;;;;;;;;;;;14.70;83.10;;;;;;4395296;32;20060;-76
2021/05/16 14:41:00;;;;;;;;;;;14.60;83.20;;;;;;4408168;32;19995;-74
2021/05/16 14:43:31;;;;;;;;;;;14.50;83.70;;;;;;4408200;32;20067;-72
2021/05/16 14:46:08;;;;;;;;;;;14.30;84.40;;;;;;4394512;32;20590;-72
2021/05/16 14:48:54;;;;;;;;;;;14.00;85.20;;;;;;4381154;32;20000;-72